createdAt,value
2023-02-01T00:01:00.388Z,9.50
2023-02-01T00:03:27.566Z,9.00
2023-02-01T00:06:01.335Z,10.50
2023-02-01T00:08:28.027Z,6.00
2023-02-01T00:11:02.149Z,9.00
2023-02-01T00:13:29.895Z,7.00
2023-02-01T00:15:56.666Z,10.50
2023-02-01T00:18:23.234Z,8.00
2023-02-01T00:20:49.851Z,8.40
2023-02-01T00:23:16.350Z,8.80
2023-02-01T00:25:42.844Z,7.00
2023-02-01T00:28:09.462Z,13.00
2023-02-01T00:30:36.246Z,9.00
2023-02-01T00:33:02.773Z,8.75
2023-02-01T00:35:29.285Z,11.00
2023-02-01T00:37:55.827Z,6.25
2023-02-01T00:40:22.634Z,15.75
2023-02-01T00:42:49.310Z,9.00
2023-02-01T00:45:15.863Z,8.00
2023-02-01T00:47:42.331Z,8.00
2023-02-01T00:50:09.074Z,8.60
2023-02-01T00:52:35.580Z,15.00
2023-02-01T00:55:02.299Z,6.60
2023-02-01T00:57:28.820Z,11.40
2023-02-01T00:59:55.319Z,6.60
2023-02-01T01:02:21.887Z,9.00
2023-02-01T01:04:48.457Z,8.80
2023-02-01T01:07:15.465Z,11.00
2023-02-01T01:09:42.046Z,11.25
2023-02-01T01:12:08.611Z,10.00
2023-02-01T01:14:35.224Z,12.00
2023-02-01T01:17:01.728Z,10.00
2023-02-01T01:19:28.228Z,8.00
2023-02-01T01:21:54.728Z,11.75
2023-02-01T01:24:21.210Z,12.00
2023-02-01T01:26:47.774Z,8.50
2023-02-01T01:29:14.343Z,10.40
2023-02-01T01:31:40.871Z,13.75
2023-02-01T01:34:07.408Z,8.20
2023-02-01T01:36:33.935Z,10.50
2023-02-01T01:39:00.539Z,10.20
2023-02-01T01:41:29.678Z,9.00
2023-02-01T01:43:58.599Z,9.00
2023-02-01T01:46:26.320Z,11.00
2023-02-01T01:48:57.660Z,10.00
2023-02-01T01:51:25.793Z,8.60
2023-02-01T01:54:02.687Z,9.50
2023-02-01T01:56:30.959Z,12.00
2023-02-01T01:58:57.648Z,7.20
2023-02-01T02:01:24.267Z,11.00
2023-02-01T02:03:52.105Z,10.00
2023-02-01T02:06:23.578Z,9.50
2023-02-01T02:08:50.082Z,8.50
2023-02-01T02:11:17.924Z,9.50
2023-02-01T02:13:47.532Z,9.80
2023-02-01T02:16:14.131Z,8.00
2023-02-01T02:19:00.922Z,7.00
2023-02-01T02:21:27.384Z,6.00
2023-02-01T02:23:53.845Z,8.40
2023-02-01T02:26:29.220Z,11.00
2023-02-01T02:28:58.849Z,7.00
2023-02-01T02:31:47.903Z,7.25
2023-02-01T02:34:17.216Z,11.00
2023-02-01T02:37:02.329Z,8.60
2023-02-01T02:39:47.472Z,10.00
2023-02-01T02:42:48.843Z,7.60
2023-02-01T02:45:46.750Z,9.00
2023-02-01T02:48:13.253Z,8.00
2023-02-01T02:51:03.757Z,7.25
2023-02-01T02:53:48.971Z,6.20
2023-02-01T02:56:34.921Z,12.00
2023-02-01T02:59:21.877Z,8.00
2023-02-01T03:02:07.807Z,6.80
2023-02-01T03:04:34.342Z,8.60
2023-02-01T03:07:15.262Z,8.00
2023-02-01T03:09:46.842Z,6.00
2023-02-01T03:12:34.417Z,7.20
2023-02-01T03:15:09.475Z,8.00
2023-02-01T03:17:40.809Z,7.00
2023-02-01T03:20:08.220Z,7.60
2023-02-01T03:22:36.139Z,7.00
2023-02-01T03:25:25.998Z,7.40
2023-02-01T03:27:58.900Z,7.00
2023-02-01T03:30:27.525Z,4.50
2023-02-01T03:33:00.892Z,6.00
2023-02-01T03:35:30.204Z,4.60
2023-02-01T03:38:02.356Z,6.00
2023-02-01T03:40:32.544Z,5.80
2023-02-01T03:43:00.536Z,7.00
2023-02-01T03:45:34.888Z,6.00
2023-02-01T03:48:03.630Z,5.20
2023-02-01T03:50:31.980Z,9.25
2023-02-01T03:53:04.423Z,5.00
2023-02-01T03:55:31.377Z,6.40
2023-02-01T03:58:18.703Z,10.20
2023-02-01T04:00:47.265Z,7.20
2023-02-01T04:03:13.790Z,6.00
2023-02-01T04:05:40.310Z,6.00
2023-02-01T04:08:06.800Z,9.00
2023-02-01T04:10:33.300Z,5.00
2023-02-01T04:12:59.817Z,5.20
2023-02-01T04:15:26.307Z,8.00
2023-02-01T04:17:52.813Z,5.00
2023-02-01T04:20:19.338Z,5.60
2023-02-01T04:22:45.811Z,7.50
2023-02-01T04:25:12.358Z,6.00
2023-02-01T04:30:05.656Z,8.00
2023-02-01T04:32:32.167Z,10.00
2023-02-01T04:34:58.660Z,8.00
2023-02-01T04:37:25.353Z,12.20
2023-02-01T04:39:51.846Z,10.00
2023-02-01T04:42:18.369Z,7.60
2023-02-01T04:44:44.887Z,6.00
2023-02-01T04:47:11.405Z,9.00
2023-02-01T04:49:37.931Z,9.50
2023-02-01T04:52:04.759Z,10.50
2023-02-01T04:54:31.256Z,9.00
2023-02-01T04:56:57.762Z,8.00
2023-02-01T04:59:24.347Z,10.00
2023-02-01T05:01:50.861Z,12.00
2023-02-01T05:04:19.655Z,6.00
2023-02-01T05:06:46.531Z,7.00
2023-02-01T05:09:13.027Z,9.60
2023-02-01T05:11:58.068Z,6.40
2023-02-01T05:14:24.556Z,6.00
2023-02-01T05:16:51.088Z,6.00
2023-02-01T05:19:17.599Z,6.20
2023-02-01T05:21:44.073Z,9.00
2023-02-01T05:24:10.654Z,6.00
2023-02-01T05:26:37.924Z,7.00
2023-02-01T05:29:05.117Z,5.00
2023-02-01T05:31:31.780Z,8.00
2023-02-01T05:33:58.314Z,5.80
2023-02-01T05:36:25.202Z,8.00
2023-02-01T05:38:53.463Z,6.00
2023-02-01T05:41:19.988Z,8.20
2023-02-01T05:43:46.499Z,5.60
2023-02-01T05:46:14.150Z,8.60
2023-02-01T05:48:41.141Z,17.50
2023-02-01T05:51:07.772Z,11.00
2023-02-01T05:53:34.312Z,17.50
2023-02-01T05:56:00.878Z,9.50
2023-02-01T06:00:54.489Z,14.00
2023-02-01T06:03:21.177Z,9.00
2023-02-01T06:05:48.246Z,13.00
2023-02-01T06:08:15.090Z,14.00
2023-02-01T06:10:41.661Z,10.00
2023-02-01T06:13:08.566Z,12.60
2023-02-01T06:15:35.163Z,16.25
2023-02-01T06:18:01.700Z,12.40
2023-02-01T06:20:28.275Z,10.50
2023-02-01T06:22:54.816Z,22.60
2023-02-01T06:25:22.357Z,14.00
2023-02-01T06:27:49.441Z,10.00
2023-02-01T06:30:15.982Z,27.60
2023-02-01T06:32:42.802Z,36.00
2023-02-01T06:35:12.344Z,25.80
2023-02-01T06:37:38.949Z,28.00
2023-02-01T06:40:05.699Z,18.00
2023-02-01T06:42:32.169Z,18.25
2023-02-01T06:44:58.655Z,21.00
2023-02-01T06:47:25.298Z,15.80
2023-02-01T06:49:51.820Z,13.60
2023-02-01T06:52:18.308Z,13.00
2023-02-01T06:54:44.797Z,25.00
2023-02-01T06:57:11.282Z,17.60
2023-02-01T06:59:38.009Z,13.00
2023-02-01T07:02:04.596Z,13.50
2023-02-01T07:04:31.400Z,11.33
2023-02-01T07:06:57.941Z,13.20
2023-02-01T07:09:24.597Z,11.50
2023-02-01T07:11:51.074Z,14.40
2023-02-01T07:14:17.581Z,16.50
2023-02-01T07:16:44.107Z,15.00
2023-02-01T07:19:10.600Z,11.00
2023-02-01T07:21:37.144Z,12.00
2023-02-01T07:24:03.744Z,12.60
2023-02-01T07:26:30.243Z,12.50
2023-02-01T07:28:56.868Z,13.00
2023-02-01T07:31:23.665Z,10.00
2023-02-01T07:33:52.630Z,12.00
2023-02-01T07:36:19.997Z,12.00
2023-02-01T07:38:48.232Z,17.50
2023-02-01T07:41:15.211Z,15.75
2023-02-01T07:43:41.824Z,9.75
2023-02-01T07:46:08.951Z,10.00
2023-02-01T07:48:35.513Z,10.25
2023-02-01T07:51:06.416Z,11.00
2023-02-01T07:53:34.079Z,8.00
2023-02-01T07:56:01.547Z,8.00
2023-02-01T07:58:28.490Z,10.00
2023-02-01T08:01:14.043Z,12.00
2023-02-01T08:03:40.812Z,8.00
2023-02-01T08:06:07.523Z,8.00
2023-02-01T08:08:34.137Z,21.00
2023-02-01T08:11:01.953Z,25.00
2023-02-01T08:13:28.741Z,14.00
2023-02-01T08:16:02.031Z,10.00
2023-02-01T08:18:28.613Z,11.50
2023-02-01T08:20:55.520Z,18.75
2023-02-01T08:23:22.929Z,13.75
2023-02-01T08:25:49.459Z,12.00
2023-02-01T08:28:15.984Z,18.00
2023-02-01T08:30:45.412Z,13.40
2023-02-01T08:33:12.824Z,16.00
2023-02-01T08:35:43.902Z,17.60
2023-02-01T08:38:10.908Z,16.00
2023-02-01T08:40:37.453Z,14.00
2023-02-01T08:43:04.021Z,17.00
2023-02-01T08:45:31.054Z,14.50
2023-02-01T08:47:58.001Z,20.25
2023-02-01T08:50:25.907Z,13.00
2023-02-01T08:52:53.244Z,14.80
2023-02-01T08:55:20.427Z,14.20
2023-02-01T08:57:46.967Z,21.60
2023-02-01T09:00:14.860Z,16.00
2023-02-01T09:02:41.427Z,14.00
2023-02-01T09:05:08.149Z,13.75
2023-02-01T09:07:35.176Z,16.50
2023-02-01T09:10:02.183Z,11.00
2023-02-01T09:12:29.527Z,16.40
2023-02-01T09:15:00.647Z,15.60
2023-02-01T09:19:55.478Z,19.80
2023-02-01T09:22:22.176Z,11.20
2023-02-01T09:24:48.810Z,22.80
2023-02-01T09:27:15.642Z,11.50
2023-02-01T09:29:42.257Z,13.40
2023-02-01T09:32:09.037Z,16.40
2023-02-01T09:34:35.620Z,13.50
2023-02-01T09:37:02.666Z,12.00
2023-02-01T09:39:31.157Z,20.00
2023-02-01T09:42:15.720Z,16.00
2023-02-01T09:44:51.042Z,10.00
2023-02-01T09:47:19.421Z,9.00
2023-02-01T09:49:53.832Z,11.60
2023-02-01T09:52:25.843Z,15.00
2023-02-01T09:55:01.869Z,13.20
2023-02-01T09:57:42.868Z,14.00
2023-02-01T10:00:16.477Z,12.20
2023-02-01T10:02:43.456Z,6.20
2023-02-01T10:05:13.851Z,13.80
2023-02-01T10:07:47.966Z,10.40
2023-02-01T10:10:52.731Z,10.00
2023-02-01T10:13:19.249Z,8.20
2023-02-01T10:16:24.302Z,11.00
2023-02-01T10:19:09.029Z,9.00
2023-02-01T10:21:42.708Z,6.00
2023-02-01T10:24:27.801Z,5.50
2023-02-01T10:27:03.546Z,6.00
2023-02-01T10:29:38.825Z,8.25
2023-02-01T10:32:11.203Z,8.75
2023-02-01T10:34:37.731Z,6.40
2023-02-01T10:37:20.560Z,10.25
2023-02-01T10:39:49.072Z,8.20
2023-02-01T10:42:16.129Z,10.00
2023-02-01T10:44:45.414Z,11.00
2023-02-01T10:47:12.191Z,5.00
2023-02-01T10:49:50.676Z,11.33
2023-02-01T10:52:22.682Z,8.00
2023-02-01T10:54:49.206Z,7.50
2023-02-01T10:57:27.026Z,8.00
2023-02-01T10:59:53.879Z,6.00
2023-02-01T11:02:20.372Z,9.00
2023-02-01T11:04:46.927Z,5.00
2023-02-01T11:07:26.369Z,7.00
2023-02-01T11:09:56.053Z,4.00
2023-02-01T11:12:33.304Z,5.75
2023-02-01T11:15:13.380Z,8.00
2023-02-01T11:17:49.749Z,14.50
2023-02-01T11:20:17.442Z,9.50
2023-02-01T11:22:55.441Z,10.75
2023-02-01T11:25:22.843Z,5.40
2023-02-01T11:27:55.427Z,8.00
2023-02-01T11:30:28.361Z,7.60
2023-02-01T11:32:55.183Z,7.80
2023-02-01T11:35:22.596Z,4.40
2023-02-01T11:37:55.786Z,9.00
2023-02-01T11:40:38.714Z,9.60
2023-02-01T11:43:08.080Z,7.50
2023-02-01T11:45:35.986Z,7.60
2023-02-01T11:48:02.693Z,8.00
2023-02-01T11:50:48.718Z,6.75
2023-02-01T11:53:21.427Z,3.80
2023-02-01T11:55:51.006Z,4.50
2023-02-01T11:58:26.271Z,3.75
2023-02-01T12:00:59.211Z,6.00
2023-02-01T12:03:28.588Z,3.75
2023-02-01T12:06:09.957Z,7.33
2023-02-01T12:08:36.424Z,10.00
2023-02-01T12:11:21.728Z,5.00
2023-02-01T12:14:06.822Z,9.50
2023-02-01T12:16:53.552Z,6.20
2023-02-01T12:19:22.793Z,6.25
2023-02-01T12:22:03.721Z,4.00
2023-02-01T12:24:42.254Z,7.80
2023-02-01T12:27:27.437Z,4.00
2023-02-01T12:30:13.935Z,3.00
2023-02-01T12:32:59.257Z,7.80
2023-02-01T12:35:36.760Z,4.80
2023-02-01T12:38:21.417Z,3.00
2023-02-01T12:41:06.560Z,4.50
2023-02-01T12:43:54.433Z,5.00
2023-02-01T12:46:36.563Z,5.00
2023-02-01T12:49:20.022Z,7.00
2023-02-01T12:51:49.170Z,4.00
2023-02-01T12:54:44.762Z,9.20
2023-02-01T12:57:16.169Z,10.40
2023-02-01T12:59:53.520Z,6.40
2023-02-01T13:02:20.118Z,8.00
2023-02-01T13:05:05.450Z,8.00
2023-02-01T13:07:40.504Z,7.60
2023-02-01T13:10:16.304Z,3.60
2023-02-01T13:13:10.900Z,3.60
2023-02-01T13:15:41.740Z,6.50
2023-02-01T13:18:13.107Z,7.80
2023-02-01T13:20:46.398Z,9.25
2023-02-01T13:23:22.943Z,7.25
2023-02-01T13:25:50.763Z,6.00
2023-02-01T13:28:28.725Z,5.40
2023-02-01T13:30:58.380Z,4.00
2023-02-01T13:33:54.497Z,4.00
2023-02-01T13:36:31.646Z,2.40
2023-02-01T13:39:24.324Z,3.50
2023-02-01T13:41:59.256Z,6.00
2023-02-01T13:44:46.020Z,4.00
2023-02-01T13:47:20.317Z,4.00
2023-02-01T13:49:46.899Z,6.50
2023-02-01T13:52:26.248Z,4.40
2023-02-01T13:55:03.158Z,7.00
2023-02-01T13:57:35.901Z,5.00
2023-02-01T14:00:10.889Z,1.80
2023-02-01T14:02:43.897Z,4.00
2023-02-01T14:05:23.241Z,4.00
2023-02-01T14:08:05.515Z,2.80
2023-02-01T14:10:54.033Z,3.60
2023-02-01T14:13:34.136Z,3.20
2023-02-01T14:16:04.012Z,2.00
2023-02-01T14:18:37.409Z,8.25
2023-02-01T14:21:26.882Z,4.00
2023-02-01T14:24:04.148Z,6.00
2023-02-01T14:26:43.098Z,3.60
2023-02-01T14:29:28.204Z,5.00
2023-02-01T14:32:03.514Z,7.00
2023-02-01T14:34:36.180Z,3.50
2023-02-01T14:37:07.983Z,5.60
2023-02-01T14:39:47.454Z,7.00
2023-02-01T14:42:28.097Z,7.40
2023-02-01T14:44:59.268Z,5.50
2023-02-01T14:47:28.455Z,1.40
2023-02-01T14:49:58.091Z,5.40
2023-02-01T14:52:34.305Z,5.20
2023-02-01T14:55:02.997Z,2.75
2023-02-01T14:57:29.727Z,3.60
2023-02-01T15:00:02.482Z,3.75
2023-02-01T15:02:31.052Z,6.00
2023-02-01T15:04:57.833Z,5.50
2023-02-01T15:07:26.156Z,3.00
2023-02-01T15:09:56.441Z,3.50
2023-02-01T15:12:28.746Z,3.00
2023-02-01T15:15:10.401Z,7.60
2023-02-01T15:17:36.900Z,3.00
2023-02-01T15:20:18.921Z,3.00
2023-02-01T15:22:54.977Z,3.33
2023-02-01T15:25:23.509Z,4.00
2023-02-01T15:27:50.644Z,5.00
2023-02-01T15:30:19.012Z,3.00
2023-02-01T15:32:45.650Z,3.80
2023-02-01T15:35:32.628Z,6.60
2023-02-01T15:38:17.907Z,4.00
2023-02-01T15:40:56.557Z,3.00
2023-02-01T15:43:23.473Z,6.00
2023-02-01T15:45:53.609Z,5.00
2023-02-01T15:48:26.147Z,7.00
2023-02-01T15:50:59.237Z,5.00
2023-02-01T15:53:31.950Z,9.00
2023-02-01T15:56:00.733Z,5.00
2023-02-01T15:58:28.881Z,6.00
2023-02-01T16:00:55.390Z,7.00
2023-02-01T16:03:24.634Z,8.40
2023-02-01T16:05:56.329Z,7.50
2023-02-01T16:08:24.331Z,6.40
2023-02-01T16:10:52.736Z,9.50
2023-02-01T16:13:19.874Z,7.60
2023-02-01T16:15:46.719Z,5.00
2023-02-01T16:18:14.829Z,6.67
2023-02-01T16:20:43.625Z,6.00
2023-02-01T16:23:11.410Z,4.20
2023-02-01T16:25:38.752Z,7.00
2023-02-01T16:28:06.475Z,5.00
2023-02-01T16:30:33.665Z,6.50
2023-02-01T16:33:00.971Z,7.60
2023-02-01T16:35:36.398Z,5.00
2023-02-01T16:38:13.224Z,6.00
2023-02-01T16:40:40.325Z,5.00
2023-02-01T16:43:13.308Z,5.50
2023-02-01T16:45:41.336Z,5.00
2023-02-01T16:48:07.929Z,8.00
2023-02-01T16:50:34.777Z,7.20
2023-02-01T16:53:02.350Z,6.25
2023-02-01T16:55:28.967Z,7.80
2023-02-01T16:57:55.534Z,11.00
2023-02-01T17:00:25.108Z,11.00
2023-02-01T17:02:52.519Z,7.00
2023-02-01T17:05:19.067Z,11.40
2023-02-01T17:07:46.081Z,10.00
2023-02-01T17:10:32.607Z,10.00
2023-02-01T17:12:59.733Z,9.00
2023-02-01T17:15:29.834Z,7.60
2023-02-01T17:17:57.708Z,6.60
2023-02-01T17:20:25.510Z,7.25
2023-02-01T17:22:53.088Z,9.60
2023-02-01T17:25:21.612Z,15.00
2023-02-01T17:27:48.900Z,11.60
2023-02-01T17:30:15.726Z,12.25
2023-02-01T17:32:42.389Z,11.60
2023-02-01T17:35:22.707Z,10.80
2023-02-01T17:37:49.652Z,11.50
2023-02-01T17:40:18.010Z,10.60
2023-02-01T17:42:44.531Z,8.50
2023-02-01T17:45:24.759Z,10.00
2023-02-01T17:47:51.341Z,8.50
2023-02-01T17:50:17.972Z,11.00
2023-02-01T17:52:44.477Z,9.25
2023-02-01T17:55:19.271Z,13.20
2023-02-01T17:57:45.830Z,12.80
2023-02-01T18:00:13.766Z,11.00
2023-02-01T18:02:40.345Z,13.60
2023-02-01T18:05:12.632Z,10.00
2023-02-01T18:07:39.094Z,11.00
2023-02-01T18:10:05.754Z,14.00
2023-02-01T18:12:33.309Z,8.80
2023-02-01T18:14:59.809Z,13.00
2023-02-01T18:17:26.290Z,15.00
2023-02-01T18:19:54.241Z,14.60
2023-02-01T18:22:23.220Z,15.00
2023-02-01T18:24:49.734Z,11.25
2023-02-01T18:27:16.239Z,21.00
2023-02-01T18:29:42.739Z,12.80
2023-02-01T18:32:09.667Z,14.50
2023-02-01T18:34:36.183Z,14.60
2023-02-01T18:37:02.799Z,16.25
2023-02-01T18:39:29.248Z,16.00
2023-02-01T18:41:55.739Z,12.50
2023-02-01T18:44:24.201Z,11.00
2023-02-01T18:46:50.780Z,13.50
2023-02-01T18:49:18.828Z,11.80
2023-02-01T18:51:45.607Z,13.00
2023-02-01T18:54:12.378Z,8.80
2023-02-01T18:56:39.091Z,13.00
2023-02-01T18:59:05.649Z,9.00
2023-02-01T19:01:32.187Z,11.00
2023-02-01T19:04:11.174Z,12.20
2023-02-01T19:06:42.598Z,13.00
2023-02-01T19:09:09.110Z,12.40
2023-02-01T19:11:35.556Z,12.00
2023-02-01T19:14:02.025Z,9.60
2023-02-01T19:16:28.566Z,12.00
2023-02-01T19:18:55.025Z,12.50
2023-02-01T19:21:21.594Z,15.00
2023-02-01T19:23:48.083Z,19.20
2023-02-01T19:26:15.773Z,14.00
2023-02-01T19:28:46.992Z,9.75
2023-02-01T19:31:14.047Z,11.33
2023-02-01T19:33:40.583Z,9.00
2023-02-01T19:36:09.948Z,19.60
2023-02-01T19:38:36.826Z,12.60
2023-02-01T19:41:03.387Z,10.00
2023-02-01T19:43:30.937Z,13.00
2023-02-01T19:45:57.566Z,13.40
2023-02-01T19:48:24.162Z,13.00
2023-02-01T19:50:51.744Z,14.40
2023-02-01T19:53:19.608Z,11.00
2023-02-01T19:55:46.867Z,12.80
2023-02-01T19:58:13.350Z,12.00
2023-02-01T20:00:39.089Z,11.00
2023-02-01T20:03:05.915Z,10.00
2023-02-01T20:05:33.131Z,11.00
2023-02-01T20:08:01.089Z,15.40
2023-02-01T20:10:27.606Z,11.60
2023-02-01T20:12:54.173Z,16.00
2023-02-01T20:15:24.741Z,13.80
2023-02-01T20:17:51.623Z,11.00
2023-02-01T20:20:18.187Z,9.40
2023-02-01T20:22:45.413Z,10.00
2023-02-01T20:25:12.717Z,12.00
2023-02-01T20:27:40.119Z,10.60
2023-02-01T20:30:06.920Z,11.50
2023-02-01T20:32:33.967Z,12.00
2023-02-01T20:35:00.472Z,12.80
2023-02-01T20:37:27.091Z,9.00
2023-02-01T20:39:53.664Z,10.00
2023-02-01T20:42:20.193Z,9.50
2023-02-01T20:44:46.753Z,7.80
2023-02-01T20:47:13.270Z,14.20
2023-02-01T20:49:40.786Z,10.80
2023-02-01T20:52:07.301Z,12.00
2023-02-01T20:54:33.856Z,10.20
2023-02-01T20:57:00.318Z,13.00
2023-02-01T20:59:26.783Z,12.00
2023-02-01T21:01:53.432Z,15.00
2023-02-01T21:04:25.288Z,10.00
2023-02-01T21:06:51.767Z,12.40
2023-02-01T21:09:18.450Z,10.00
2023-02-01T21:11:45.024Z,9.50
2023-02-01T21:14:12.028Z,9.60
2023-02-01T21:16:38.686Z,10.20
2023-02-01T21:19:05.356Z,11.50
2023-02-01T21:21:31.869Z,9.00
2023-02-01T21:23:59.012Z,9.20
2023-02-01T21:26:26.848Z,11.60
2023-02-01T21:28:54.393Z,15.40
2023-02-01T21:31:22.426Z,13.00
2023-02-01T21:33:49.496Z,11.75
2023-02-01T21:36:19.605Z,12.25
2023-02-01T21:38:52.535Z,13.25
2023-02-01T21:41:38.787Z,11.80
2023-02-01T21:44:05.518Z,10.60
2023-02-01T21:46:32.068Z,12.50
2023-02-01T21:49:06.141Z,13.60
2023-02-01T21:51:35.179Z,13.50
2023-02-01T21:54:01.714Z,13.80
2023-02-01T21:56:28.206Z,10.00
2023-02-01T21:58:55.333Z,11.40
2023-02-01T22:01:21.810Z,16.60
2023-02-01T22:03:49.259Z,9.00
2023-02-01T22:06:29.156Z,11.00
2023-02-01T22:08:56.288Z,12.00
2023-02-01T22:11:22.833Z,13.00
2023-02-01T22:13:49.366Z,11.00
2023-02-01T22:16:18.227Z,9.60
2023-02-01T22:18:45.611Z,13.00
2023-02-01T22:21:12.114Z,9.00
2023-02-01T22:23:38.638Z,10.50
2023-02-01T22:26:08.818Z,12.00
2023-02-01T22:28:35.694Z,10.20
2023-02-01T22:31:03.099Z,13.00
2023-02-01T22:33:29.986Z,10.60
2023-02-01T22:35:56.454Z,15.60
2023-02-01T22:38:23.426Z,10.00
2023-02-01T22:40:56.841Z,10.20
2023-02-01T22:43:23.470Z,13.20
2023-02-01T22:45:50.198Z,12.00
2023-02-01T22:48:16.712Z,10.00
2023-02-01T22:50:43.743Z,13.60
2023-02-01T22:53:10.615Z,9.60
2023-02-01T22:55:37.448Z,10.00
2023-02-01T22:58:06.147Z,8.60
2023-02-01T23:00:32.620Z,10.50
2023-02-01T23:02:59.227Z,14.40
2023-02-01T23:05:25.987Z,10.60
2023-02-01T23:07:52.552Z,10.00
2023-02-01T23:10:20.061Z,14.80
2023-02-01T23:12:46.775Z,10.00
2023-02-01T23:15:13.856Z,10.60
2023-02-01T23:17:40.390Z,9.20
2023-02-01T23:20:07.965Z,11.60
2023-02-01T23:22:34.475Z,12.00
2023-02-01T23:25:00.920Z,14.00
2023-02-01T23:27:27.443Z,10.75
2023-02-01T23:29:54.084Z,9.25
2023-02-01T23:32:20.697Z,11.00
2023-02-01T23:34:47.155Z,11.20
2023-02-01T23:37:13.765Z,9.80
2023-02-01T23:39:40.435Z,9.40
2023-02-01T23:42:06.922Z,12.20
2023-02-01T23:44:33.995Z,9.75
2023-02-01T23:47:01.506Z,9.00
2023-02-01T23:49:28.044Z,9.00
2023-02-01T23:51:54.570Z,11.00
2023-02-01T23:54:22.681Z,10.50
2023-02-01T23:56:49.608Z,9.75
2023-02-01T23:59:18.064Z,7.75
